createdAt,value
2023-12-09T00:00:14.865Z,5.12
2023-12-09T00:02:42.480Z,4.95
2023-12-09T00:05:09.956Z,5.11
2023-12-09T00:07:36.945Z,5.05
2023-12-09T00:10:04.428Z,5.08
2023-12-09T00:12:31.725Z,5.04
2023-12-09T00:14:58.916Z,5.11
2023-12-09T00:17:26.018Z,5.06
2023-12-09T00:19:53.121Z,4.53
2023-12-09T00:22:20.719Z,5.04
2023-12-09T00:24:47.994Z,5.11
2023-12-09T00:27:15.399Z,4.54
2023-12-09T00:29:42.850Z,5.02
2023-12-09T00:32:10.335Z,4.80
2023-12-09T00:34:37.547Z,5.25
2023-12-09T00:37:05.090Z,4.87
2023-12-09T00:39:33.019Z,5.21
2023-12-09T00:42:00.404Z,5.02
2023-12-09T00:44:27.244Z,5.13
2023-12-09T00:46:54.249Z,5.00
2023-12-09T00:49:21.478Z,5.22
2023-12-09T00:51:48.710Z,4.40
2023-12-09T00:54:15.895Z,4.85
2023-12-09T00:56:43.645Z,5.28
2023-12-09T00:59:11.300Z,4.86
2023-12-09T01:01:38.587Z,5.30
2023-12-09T01:04:07.432Z,5.31
2023-12-09T01:06:34.550Z,3.84
2023-12-09T01:09:02.030Z,5.48
2023-12-09T01:11:29.258Z,5.36
2023-12-09T01:13:56.552Z,5.05
2023-12-09T01:16:23.959Z,5.03
2023-12-09T01:18:51.098Z,5.15
2023-12-09T01:21:18.677Z,5.29
2023-12-09T01:23:46.185Z,5.11
2023-12-09T01:26:13.367Z,5.36
2023-12-09T01:28:40.598Z,5.39
2023-12-09T01:31:07.936Z,5.49
2023-12-09T01:33:35.226Z,5.45
2023-12-09T01:36:02.304Z,5.20
2023-12-09T01:38:29.512Z,5.27
2023-12-09T01:40:56.866Z,5.19
2023-12-09T01:43:25.117Z,5.15
2023-12-09T01:45:56.136Z,4.92
2023-12-09T01:48:23.892Z,5.20
2023-12-09T01:50:51.456Z,5.40
2023-12-09T01:55:51.909Z,5.13
2023-12-09T01:58:20.821Z,5.46
2023-12-09T02:00:48.831Z,4.94
2023-12-09T02:03:18.162Z,5.01
2023-12-09T02:05:46.084Z,5.02
2023-12-09T02:08:13.729Z,5.36
2023-12-09T02:10:40.897Z,5.42
2023-12-09T02:13:24.893Z,5.42
2023-12-09T02:16:08.194Z,5.45
2023-12-09T02:18:37.207Z,4.97
2023-12-09T02:21:05.140Z,5.56
2023-12-09T02:23:33.131Z,5.31
2023-12-09T02:26:09.240Z,5.65
2023-12-09T02:28:42.548Z,5.42
2023-12-09T02:31:31.840Z,5.62
2023-12-09T02:34:03.273Z,5.58
2023-12-09T02:36:32.055Z,5.57
2023-12-09T02:39:02.219Z,5.34
2023-12-09T02:41:30.174Z,5.59
2023-12-09T02:43:57.674Z,5.59
2023-12-09T02:46:25.253Z,5.74
2023-12-09T02:48:52.962Z,5.95
2023-12-09T02:51:20.624Z,5.40
2023-12-09T02:53:48.289Z,5.94
2023-12-09T02:56:15.747Z,5.96
2023-12-09T02:58:43.283Z,5.53
2023-12-09T03:01:10.703Z,5.41
2023-12-09T03:03:38.112Z,5.72
2023-12-09T03:06:05.935Z,5.66
2023-12-09T03:08:33.490Z,5.73
2023-12-09T03:11:00.711Z,5.47
2023-12-09T03:13:28.392Z,5.34
2023-12-09T03:15:55.919Z,5.60
2023-12-09T03:18:23.694Z,5.60
2023-12-09T03:20:51.173Z,5.38
2023-12-09T03:23:18.526Z,5.73
2023-12-09T03:25:45.845Z,5.22
2023-12-09T03:28:13.782Z,5.70
2023-12-09T03:30:41.441Z,5.80
2023-12-09T03:33:09.210Z,5.92
2023-12-09T03:35:36.575Z,5.92
2023-12-09T03:38:04.206Z,5.69
2023-12-09T03:40:31.844Z,5.39
2023-12-09T03:42:59.142Z,5.52
2023-12-09T03:45:26.291Z,5.72
2023-12-09T03:47:54.092Z,5.64
2023-12-09T03:50:21.507Z,5.51
2023-12-09T03:52:49.752Z,5.48
2023-12-09T03:55:17.642Z,5.59
2023-12-09T03:57:45.778Z,5.51
2023-12-09T04:00:13.515Z,5.69
2023-12-09T04:02:41.254Z,5.66
2023-12-09T04:05:08.696Z,5.96
2023-12-09T04:07:36.145Z,5.72
2023-12-09T04:10:05.185Z,5.85
2023-12-09T04:12:32.685Z,5.97
2023-12-09T04:15:00.005Z,5.93
2023-12-09T04:17:27.220Z,5.86
2023-12-09T04:19:54.760Z,5.94
2023-12-09T04:22:22.188Z,5.69
2023-12-09T04:24:49.796Z,5.66
2023-12-09T04:27:17.495Z,6.03
2023-12-09T04:29:44.486Z,6.04
2023-12-09T04:32:11.372Z,5.91
2023-12-09T04:34:39.809Z,6.23
2023-12-09T04:37:07.331Z,6.17
2023-12-09T04:39:34.870Z,6.14
2023-12-09T04:42:01.936Z,6.23
2023-12-09T04:44:29.121Z,5.81
2023-12-09T04:46:56.423Z,6.11
2023-12-09T04:49:23.680Z,6.20
2023-12-09T04:51:51.284Z,5.90
2023-12-09T04:54:19.218Z,6.05
2023-12-09T04:56:47.167Z,5.82
2023-12-09T04:59:15.378Z,6.23
2023-12-09T05:01:43.161Z,6.39
2023-12-09T05:04:11.066Z,6.38
2023-12-09T05:06:38.659Z,5.96
2023-12-09T05:09:06.202Z,6.55
2023-12-09T05:11:35.911Z,6.11
2023-12-09T05:14:03.360Z,6.50
2023-12-09T05:16:30.898Z,6.62
2023-12-09T05:18:58.757Z,6.23
2023-12-09T05:21:35.290Z,6.34
2023-12-09T05:24:05.309Z,6.50
2023-12-09T05:26:33.776Z,6.62
2023-12-09T05:29:01.323Z,6.28
2023-12-09T05:31:28.805Z,6.36
2023-12-09T05:33:56.196Z,6.75
2023-12-09T05:36:23.354Z,6.77
2023-12-09T05:38:51.013Z,6.44
2023-12-09T05:41:18.294Z,6.00
2023-12-09T05:43:45.614Z,6.65
2023-12-09T05:46:20.826Z,6.55
2023-12-09T05:48:50.082Z,6.63
2023-12-09T05:51:17.797Z,6.39
2023-12-09T05:53:45.481Z,6.71
2023-12-09T05:56:15.856Z,6.70
2023-12-09T05:58:43.189Z,6.67
2023-12-09T06:01:12.804Z,6.69
2023-12-09T06:03:40.486Z,6.66
2023-12-09T06:06:07.880Z,6.64
2023-12-09T06:08:35.539Z,6.62
2023-12-09T06:11:03.274Z,6.43
2023-12-09T06:13:32.114Z,5.88
2023-12-09T06:15:59.093Z,6.56
2023-12-09T06:18:27.118Z,6.68
2023-12-09T06:20:54.385Z,6.77
2023-12-09T06:23:21.573Z,6.63
2023-12-09T06:25:49.820Z,6.90
2023-12-09T06:28:17.075Z,6.85
2023-12-09T06:30:44.471Z,6.63
2023-12-09T06:33:12.665Z,6.75
2023-12-09T06:35:39.894Z,6.85
2023-12-09T06:38:07.261Z,6.13
2023-12-09T06:40:35.631Z,6.71
2023-12-09T06:43:03.047Z,6.66
2023-12-09T06:45:30.331Z,6.41
2023-12-09T06:47:58.590Z,6.53
2023-12-09T06:50:26.071Z,6.66
2023-12-09T06:52:53.425Z,7.09
2023-12-09T06:55:20.661Z,7.06
2023-12-09T06:57:48.357Z,7.03
2023-12-09T07:00:16.174Z,7.09
2023-12-09T07:02:53.074Z,6.74
2023-12-09T07:05:28.409Z,6.88
2023-12-09T07:07:55.781Z,6.80
2023-12-09T07:10:25.306Z,7.09
2023-12-09T07:12:52.888Z,7.10
2023-12-09T07:15:20.253Z,7.09
2023-12-09T07:17:47.807Z,7.23
2023-12-09T07:20:15.657Z,6.17
2023-12-09T07:22:42.810Z,7.09
2023-12-09T07:25:10.264Z,7.36
2023-12-09T07:27:37.830Z,7.26
2023-12-09T07:30:05.796Z,7.37
2023-12-09T07:32:34.008Z,7.00
2023-12-09T07:35:01.828Z,7.16
2023-12-09T07:37:29.467Z,7.23
2023-12-09T07:39:57.528Z,7.27
2023-12-09T07:42:25.372Z,7.19
2023-12-09T07:44:53.401Z,7.15
2023-12-09T07:47:20.862Z,7.52
2023-12-09T07:49:48.515Z,7.15
2023-12-09T07:52:15.817Z,7.37
2023-12-09T07:54:43.286Z,7.59
2023-12-09T07:57:11.201Z,7.24
2023-12-09T07:59:38.398Z,7.11
2023-12-09T08:02:06.174Z,7.62
2023-12-09T08:04:33.890Z,7.63
2023-12-09T08:07:01.233Z,7.18
2023-12-09T08:09:28.633Z,7.42
2023-12-09T08:11:57.036Z,7.51
2023-12-09T08:14:23.933Z,7.60
2023-12-09T08:16:51.402Z,7.50
2023-12-09T08:19:18.936Z,7.46
2023-12-09T08:21:45.669Z,7.52
2023-12-09T08:24:12.678Z,7.68
2023-12-09T08:26:40.699Z,7.81
2023-12-09T08:29:10.221Z,7.88
2023-12-09T08:31:37.764Z,7.76
2023-12-09T08:34:05.989Z,7.73
2023-12-09T08:36:33.563Z,7.83
2023-12-09T08:39:00.708Z,7.25
2023-12-09T08:41:30.614Z,7.83
2023-12-09T08:43:58.792Z,8.04
2023-12-09T08:46:26.022Z,8.03
2023-12-09T08:48:53.254Z,7.61
2023-12-09T08:51:21.146Z,7.56
2023-12-09T08:53:48.770Z,7.59
2023-12-09T08:56:16.722Z,7.64
2023-12-09T08:58:45.348Z,7.53
2023-12-09T09:01:15.849Z,7.83
2023-12-09T09:03:46.165Z,7.73
2023-12-09T09:06:16.708Z,7.82
2023-12-09T09:08:47.528Z,8.06
2023-12-09T09:11:15.458Z,7.97
2023-12-09T09:13:45.524Z,7.88
2023-12-09T09:16:14.472Z,7.90
2023-12-09T09:18:46.502Z,7.78
2023-12-09T09:21:14.494Z,7.99
2023-12-09T09:23:42.848Z,8.28
2023-12-09T09:26:12.200Z,8.31
2023-12-09T09:28:40.887Z,7.99
2023-12-09T09:31:09.904Z,7.98
2023-12-09T09:33:41.744Z,8.24
2023-12-09T09:36:10.842Z,7.59
2023-12-09T09:38:40.188Z,8.00
2023-12-09T09:41:13.574Z,7.74
2023-12-09T09:43:49.882Z,7.94
2023-12-09T09:46:18.479Z,7.73
2023-12-09T09:48:48.073Z,8.06
2023-12-09T09:51:22.189Z,7.79
2023-12-09T09:54:13.691Z,7.59
2023-12-09T09:56:42.941Z,8.12
2023-12-09T09:59:12.957Z,7.89
2023-12-09T10:01:42.090Z,7.63
2023-12-09T10:04:11.578Z,7.40
2023-12-09T10:06:42.211Z,7.81
2023-12-09T10:09:11.244Z,7.77
2023-12-09T10:11:38.540Z,7.50
2023-12-09T10:14:06.513Z,8.09
2023-12-09T10:16:35.398Z,8.01
2023-12-09T10:19:03.757Z,8.29
2023-12-09T10:21:31.847Z,7.96
2023-12-09T10:24:00.003Z,8.30
2023-12-09T10:26:28.058Z,8.76
2023-12-09T10:28:56.954Z,9.07
2023-12-09T10:31:25.545Z,10.03
2023-12-09T10:33:52.655Z,10.80
2023-12-09T10:36:20.826Z,11.61
2023-12-09T10:38:49.953Z,11.66
2023-12-09T10:41:18.102Z,11.44
2023-12-09T10:43:47.475Z,10.55
2023-12-09T10:46:17.282Z,10.46
2023-12-09T10:48:46.170Z,10.07
2023-12-09T10:51:14.838Z,9.88
2023-12-09T10:53:43.391Z,9.66
2023-12-09T10:56:11.750Z,10.13
2023-12-09T10:58:40.801Z,9.83
2023-12-09T11:01:09.803Z,9.49
2023-12-09T11:03:42.055Z,9.35
2023-12-09T11:06:12.035Z,9.22
2023-12-09T11:08:41.615Z,8.88
2023-12-09T11:11:11.533Z,8.92
2023-12-09T11:13:46.804Z,8.95
2023-12-09T11:16:20.997Z,8.98
2023-12-09T11:19:01.257Z,8.88
2023-12-09T11:21:31.811Z,8.61
2023-12-09T11:24:01.203Z,8.93
2023-12-09T11:26:31.637Z,8.71
2023-12-09T11:29:07.903Z,8.12
2023-12-09T11:31:40.495Z,8.28
2023-12-09T11:34:13.925Z,8.68
2023-12-09T11:36:44.247Z,8.83
2023-12-09T11:39:13.360Z,9.09
2023-12-09T11:41:42.101Z,8.99
2023-12-09T11:44:10.418Z,8.89
2023-12-09T11:46:37.805Z,9.15
2023-12-09T11:49:06.459Z,9.03
2023-12-09T11:51:37.908Z,8.63
2023-12-09T11:54:06.694Z,8.66
2023-12-09T11:56:34.862Z,8.51
2023-12-09T11:59:01.555Z,8.80
2023-12-09T12:01:33.235Z,8.19
2023-12-09T12:04:00.555Z,8.47
2023-12-09T12:06:29.027Z,8.44
2023-12-09T12:08:56.426Z,8.45
2023-12-09T12:11:26.937Z,8.40
2023-12-09T12:13:55.234Z,7.89
2023-12-09T12:16:23.363Z,8.30
2023-12-09T12:18:51.680Z,8.07
2023-12-09T12:21:19.622Z,8.39
2023-12-09T12:23:54.187Z,7.87
2023-12-09T12:26:22.082Z,8.31
2023-12-09T12:28:53.352Z,7.97
2023-12-09T12:31:22.825Z,8.08
2023-12-09T12:33:50.481Z,7.72
2023-12-09T12:36:23.544Z,8.18
2023-12-09T12:38:54.000Z,8.07
2023-12-09T12:41:21.781Z,7.89
2023-12-09T12:43:50.046Z,7.98
2023-12-09T12:46:23.057Z,7.56
2023-12-09T12:48:51.480Z,7.72
2023-12-09T12:51:19.758Z,7.53
2023-12-09T12:53:48.619Z,7.76
2023-12-09T12:56:17.438Z,7.82
2023-12-09T12:58:46.172Z,7.60
2023-12-09T13:01:15.360Z,7.44
2023-12-09T13:03:43.395Z,7.35
2023-12-09T13:06:14.101Z,7.73
2023-12-09T13:08:42.596Z,7.81
2023-12-09T13:11:10.396Z,7.50
2023-12-09T13:13:38.836Z,7.64
2023-12-09T13:16:06.722Z,7.64
2023-12-09T13:18:36.301Z,7.86
2023-12-09T13:21:05.933Z,7.57
2023-12-09T13:23:34.406Z,7.30
2023-12-09T13:26:03.464Z,7.91
2023-12-09T13:28:31.173Z,7.50
2023-12-09T13:31:00.037Z,7.52
2023-12-09T13:33:28.782Z,7.50
2023-12-09T13:35:56.670Z,7.47
2023-12-09T13:38:24.602Z,7.60
2023-12-09T13:40:53.345Z,7.49
2023-12-09T13:43:21.120Z,7.95
2023-12-09T13:45:49.379Z,7.83
2023-12-09T13:48:19.174Z,8.03
2023-12-09T13:50:47.072Z,8.32
2023-12-09T13:53:15.378Z,8.15
2023-12-09T13:55:43.319Z,8.25
2023-12-09T13:58:11.868Z,7.91
2023-12-09T14:00:39.728Z,8.02
2023-12-09T14:03:08.591Z,7.96
2023-12-09T14:05:36.562Z,8.03
2023-12-09T14:08:04.459Z,8.24
2023-12-09T14:10:33.469Z,8.22
2023-12-09T14:13:02.957Z,8.06
2023-12-09T14:15:30.816Z,7.84
2023-12-09T14:17:58.644Z,8.16
2023-12-09T14:20:27.706Z,8.00
2023-12-09T14:22:55.596Z,8.13
2023-12-09T14:25:23.797Z,8.13
2023-12-09T14:27:53.868Z,8.09
2023-12-09T14:30:23.006Z,8.04
2023-12-09T14:32:51.361Z,8.14
2023-12-09T14:35:20.387Z,8.11
2023-12-09T14:37:49.784Z,8.09
2023-12-09T14:40:18.626Z,7.97
2023-12-09T14:42:48.528Z,8.16
2023-12-09T14:45:16.949Z,8.15
2023-12-09T14:47:54.020Z,7.88
2023-12-09T14:50:27.372Z,8.22
2023-12-09T14:52:56.132Z,7.93
2023-12-09T14:55:25.166Z,8.03
2023-12-09T14:57:54.077Z,7.94
2023-12-09T15:00:22.407Z,7.79
2023-12-09T15:02:50.265Z,8.10
2023-12-09T15:05:19.055Z,7.95
2023-12-09T15:07:47.412Z,8.10
2023-12-09T15:10:15.732Z,8.13
2023-12-09T15:12:44.338Z,7.56
2023-12-09T15:15:13.122Z,8.04
2023-12-09T15:17:40.609Z,7.92
2023-12-09T15:20:12.452Z,7.54
2023-12-09T15:22:41.087Z,7.87
2023-12-09T15:25:10.250Z,7.95
2023-12-09T15:27:38.897Z,7.82
2023-12-09T15:30:08.941Z,7.92
2023-12-09T15:32:37.046Z,7.77
2023-12-09T15:35:05.379Z,7.93
2023-12-09T15:37:34.049Z,7.68
2023-12-09T15:40:03.763Z,7.76
2023-12-09T15:42:31.486Z,7.74
2023-12-09T15:45:01.444Z,7.74
2023-12-09T15:47:29.510Z,7.78
2023-12-09T15:50:04.160Z,7.75
2023-12-09T15:52:32.372Z,7.52
2023-12-09T15:55:01.023Z,7.77
2023-12-09T15:57:30.743Z,7.57
2023-12-09T15:59:58.670Z,7.43
2023-12-09T16:02:28.920Z,7.70
2023-12-09T16:04:57.425Z,7.58
2023-12-09T16:07:26.416Z,7.55
2023-12-09T16:09:58.023Z,7.41
2023-12-09T16:12:27.656Z,7.37
2023-12-09T16:14:56.311Z,7.45
2023-12-09T16:17:23.619Z,7.09
2023-12-09T16:19:51.683Z,7.36
2023-12-09T16:22:20.307Z,6.99
2023-12-09T16:24:50.179Z,7.23
2023-12-09T16:27:18.936Z,7.40
2023-12-09T16:29:46.897Z,7.40
2023-12-09T16:32:15.706Z,7.40
2023-12-09T16:34:43.269Z,7.24
2023-12-09T16:37:11.625Z,6.91
2023-12-09T16:39:39.832Z,7.40
2023-12-09T16:42:08.249Z,7.43
2023-12-09T16:44:35.852Z,7.14
2023-12-09T16:47:04.809Z,7.16
2023-12-09T16:49:32.356Z,7.23
2023-12-09T16:52:00.927Z,7.56
2023-12-09T16:54:29.560Z,7.63
2023-12-09T16:56:58.810Z,7.66
2023-12-09T16:59:27.340Z,7.41
2023-12-09T17:01:54.575Z,6.90
2023-12-09T17:04:24.032Z,7.49
2023-12-09T17:06:54.982Z,7.56
2023-12-09T17:09:22.441Z,7.68
2023-12-09T17:11:51.211Z,7.67
2023-12-09T17:14:19.730Z,7.74
2023-12-09T17:16:47.472Z,7.42
2023-12-09T17:19:15.530Z,7.67
2023-12-09T17:21:44.119Z,7.68
2023-12-09T17:24:11.764Z,7.49
2023-12-09T17:26:40.182Z,7.63
2023-12-09T17:29:09.647Z,7.80
2023-12-09T17:31:40.092Z,7.77
2023-12-09T17:34:11.965Z,7.76
2023-12-09T17:36:41.215Z,7.67
2023-12-09T17:39:09.674Z,7.77
2023-12-09T17:41:38.194Z,7.52
2023-12-09T17:44:06.511Z,7.67
2023-12-09T17:46:34.704Z,7.61
2023-12-09T17:49:03.435Z,7.60
2023-12-09T17:51:31.689Z,7.63
2023-12-09T17:53:59.523Z,7.29
2023-12-09T17:56:28.432Z,7.79
2023-12-09T17:58:56.879Z,7.57
2023-12-09T18:01:25.829Z,7.69
2023-12-09T18:03:55.048Z,7.79
2023-12-09T18:06:24.216Z,7.55
2023-12-09T18:08:52.537Z,7.88
2023-12-09T18:11:21.765Z,7.96
2023-12-09T18:13:49.178Z,7.90
2023-12-09T18:16:18.527Z,7.91
2023-12-09T18:18:47.312Z,7.92
2023-12-09T18:21:14.742Z,7.60
2023-12-09T18:23:42.681Z,8.07
2023-12-09T18:26:11.171Z,7.82
2023-12-09T18:28:40.530Z,7.88
2023-12-09T18:31:08.776Z,7.63
2023-12-09T18:33:37.278Z,7.92
2023-12-09T18:36:06.221Z,7.91
2023-12-09T18:38:33.418Z,7.79
2023-12-09T18:41:00.993Z,7.79
2023-12-09T18:43:29.757Z,7.74
2023-12-09T18:45:57.939Z,7.95
2023-12-09T18:48:28.947Z,7.94
2023-12-09T18:50:58.385Z,7.93
2023-12-09T18:53:26.867Z,7.67
2023-12-09T18:55:56.870Z,7.75
2023-12-09T18:58:25.630Z,7.51
2023-12-09T19:01:01.856Z,7.91
2023-12-09T19:03:37.341Z,7.74
2023-12-09T19:06:06.549Z,7.88
2023-12-09T19:08:34.458Z,7.71
2023-12-09T19:11:02.910Z,7.61
2023-12-09T19:13:30.506Z,8.01
2023-12-09T19:15:59.972Z,7.82
2023-12-09T19:18:28.470Z,8.09
2023-12-09T19:20:56.910Z,7.98
2023-12-09T19:23:25.047Z,7.95
2023-12-09T19:25:53.250Z,7.92
2023-12-09T19:28:20.684Z,7.95
2023-12-09T19:30:48.506Z,8.05
2023-12-09T19:33:16.642Z,7.98
2023-12-09T19:35:46.025Z,7.88
2023-12-09T19:38:13.842Z,7.91
2023-12-09T19:40:42.384Z,7.70
2023-12-09T19:43:10.345Z,8.03
2023-12-09T19:45:38.579Z,8.04
2023-12-09T19:48:09.363Z,7.99
2023-12-09T19:50:37.237Z,7.98
2023-12-09T19:53:05.927Z,7.90
2023-12-09T19:55:33.533Z,7.77
2023-12-09T19:58:02.964Z,7.74
2023-12-09T20:00:30.789Z,7.62
2023-12-09T20:03:00.801Z,7.82
2023-12-09T20:05:29.769Z,7.83
2023-12-09T20:07:58.219Z,7.86
2023-12-09T20:10:25.133Z,7.79
2023-12-09T20:12:53.353Z,8.03
2023-12-09T20:15:21.339Z,8.10
2023-12-09T20:17:49.404Z,8.13
2023-12-09T20:20:16.826Z,8.00
2023-12-09T20:22:45.285Z,7.90
2023-12-09T20:25:12.666Z,8.13
2023-12-09T20:27:41.182Z,8.14
2023-12-09T20:30:09.300Z,8.14
2023-12-09T20:32:37.118Z,8.25
2023-12-09T20:35:05.600Z,8.11
2023-12-09T20:37:33.459Z,7.63
2023-12-09T20:40:02.575Z,7.94
2023-12-09T20:42:34.093Z,7.91
2023-12-09T20:45:05.306Z,7.71
2023-12-09T20:47:33.943Z,7.85
2023-12-09T20:50:05.615Z,7.97
2023-12-09T20:52:33.613Z,8.11
2023-12-09T20:55:02.308Z,7.98
2023-12-09T20:57:31.538Z,8.11
2023-12-09T20:59:59.396Z,7.95
2023-12-09T21:02:27.968Z,7.96
2023-12-09T21:04:56.839Z,7.97
2023-12-09T21:07:24.885Z,8.26
2023-12-09T21:09:52.667Z,8.32
2023-12-09T21:12:20.988Z,8.37
2023-12-09T21:14:49.401Z,8.12
2023-12-09T21:17:17.214Z,8.05
2023-12-09T21:19:45.580Z,8.06
2023-12-09T21:22:13.226Z,8.19
2023-12-09T21:24:40.742Z,8.19
2023-12-09T21:27:08.698Z,8.11
2023-12-09T21:29:36.117Z,7.98
2023-12-09T21:32:03.794Z,8.10
2023-12-09T21:34:31.954Z,8.00
2023-12-09T21:36:59.595Z,8.11
2023-12-09T21:39:28.903Z,7.93
2023-12-09T21:41:56.928Z,7.95
2023-12-09T21:44:24.865Z,8.19
2023-12-09T21:46:52.640Z,8.19
2023-12-09T21:49:21.711Z,8.55
2023-12-09T21:51:49.572Z,8.36
2023-12-09T21:54:17.619Z,8.40
2023-12-09T21:56:46.440Z,8.13
2023-12-09T21:59:14.207Z,8.37
2023-12-09T22:01:43.454Z,8.36
2023-12-09T22:04:11.637Z,8.20
2023-12-09T22:06:39.855Z,8.24
2023-12-09T22:09:07.869Z,8.28
2023-12-09T22:11:36.174Z,8.18
2023-12-09T22:14:04.585Z,8.21
2023-12-09T22:16:33.028Z,7.89
2023-12-09T22:19:01.317Z,8.19
2023-12-09T22:21:29.195Z,8.01
2023-12-09T22:23:57.687Z,7.78
2023-12-09T22:26:25.924Z,7.86
2023-12-09T22:28:54.054Z,11.20
2023-12-09T22:31:23.210Z,11.29
2023-12-09T22:33:52.722Z,10.38
2023-12-09T22:36:26.334Z,9.90
2023-12-09T22:38:54.111Z,9.59
2023-12-09T22:41:25.567Z,11.25
2023-12-09T22:43:54.045Z,10.94
2023-12-09T22:46:29.733Z,10.71
2023-12-09T22:48:58.762Z,9.42
2023-12-09T22:51:27.482Z,9.77
2023-12-09T22:53:56.143Z,10.18
2023-12-09T22:56:28.982Z,10.26
2023-12-09T22:59:01.160Z,10.00
2023-12-09T23:01:36.179Z,10.37
2023-12-09T23:04:04.356Z,9.87
2023-12-09T23:06:32.300Z,10.00
2023-12-09T23:09:01.269Z,10.36
2023-12-09T23:11:29.411Z,10.05
2023-12-09T23:13:57.783Z,10.60
2023-12-09T23:16:25.373Z,10.52
2023-12-09T23:18:54.116Z,10.55
2023-12-09T23:21:22.015Z,10.75
2023-12-09T23:23:50.408Z,10.63
2023-12-09T23:26:18.689Z,9.86
2023-12-09T23:28:46.876Z,10.45
2023-12-09T23:31:20.114Z,10.14
2023-12-09T23:33:53.515Z,10.14
2023-12-09T23:36:21.199Z,10.44
2023-12-09T23:38:49.262Z,10.18
2023-12-09T23:41:18.026Z,9.80
2023-12-09T23:43:46.109Z,10.51
2023-12-09T23:46:35.000Z,10.38
2023-12-09T23:49:03.005Z,9.45
2023-12-09T23:51:30.991Z,10.21
2023-12-09T23:53:59.430Z,9.92
2023-12-09T23:56:27.581Z,9.89
2023-12-09T23:58:56.654Z,10.02
